Time;durP1;ratioP1;P1;durP2;ratioP2;P2;SDS_P1;SDS_P2;PMS_P1;PMS_P2;Temp;Humidity;BMP_temperature;BMP_pressure;BME280_temperature;BME280_humidity;BME280_pressure;Samples;Min_cycle;Max_cycle;Signal;HPM_P1;HPM_P2
2022/10/10 00:05:08;;;;;;;6.30;3.10;;;;;;;22.80;55.34;101266.41;20667137;28;20396;-71
2022/10/10 00:15:12;;;;;;;3.72;2.75;;;;;;;22.78;55.57;101268.31;20660252;28;20280;-70
2022/10/10 00:25:13;;;;;;;4.32;3.08;;;;;;;22.79;55.74;101271.78;20657813;28;20050;-71
2022/10/10 00:35:13;;;;;;;3.92;2.75;;;;;;;22.76;55.51;101257.00;20656490;28;20096;-72
2022/10/10 00:45:28;;;;;;;3.95;3.10;;;;;;;22.75;55.41;101244.75;20660966;28;20093;-72
2022/10/10 00:55:28;;;;;;;3.75;2.70;;;;;;;22.73;55.40;101238.75;20657216;28;20038;-73
2022/10/10 01:05:30;;;;;;;3.50;2.80;;;;;;;22.71;55.45;101236.19;20659080;28;20461;-73
2022/10/10 01:15:52;;;;;;;4.53;2.90;;;;;;;22.69;55.40;101235.47;20656122;28;20046;-73
2022/10/10 01:26:30;;;;;;;3.63;2.47;;;;;;;22.65;55.66;101228.72;20657856;28;20085;-72
2022/10/10 01:36:53;;;;;;;2.88;2.28;;;;;;;22.65;55.37;101228.72;20655427;28;20064;-73
2022/10/10 01:46:54;;;;;;;3.83;2.72;;;;;;;22.64;55.28;101213.84;20648835;28;20527;-71
2022/10/10 01:57:28;;;;;;;3.20;2.53;;;;;;;22.63;55.50;101206.88;20649109;28;20042;-73
2022/10/10 02:07:43;;;;;;;5.00;2.50;;;;;;;22.62;55.57;101223.66;20656841;28;20142;-73
2022/10/10 02:17:46;;;;;;;2.50;2.20;;;;;;;22.62;55.25;101215.75;20655666;28;20137;-73
2022/10/10 02:28:03;;;;;;;2.60;2.13;;;;;;;22.59;55.31;101215.94;20658702;28;20076;-73
2022/10/10 02:38:06;;;;;;;3.03;2.20;;;;;;;22.57;55.25;101212.59;20661964;28;20128;-72
2022/10/10 02:48:07;;;;;;;2.33;2.10;;;;;;;22.55;55.31;101212.69;20671057;28;20042;-73
2022/10/10 02:58:08;;;;;;;2.97;2.17;;;;;;;22.54;55.43;101221.56;20668435;28;20042;-72
2022/10/10 03:08:08;;;;;;;2.55;2.05;;;;;;;22.51;55.37;101220.94;20662223;28;20417;-73
2022/10/10 03:18:08;;;;;;;2.40;2.03;;;;;;;22.51;55.16;101219.13;20662304;28;20050;-72
2022/10/10 03:28:10;;;;;;;2.78;2.05;;;;;;;22.50;55.33;101209.53;20662455;28;20037;-72
2022/10/10 03:38:12;;;;;;;2.93;2.10;;;;;;;22.48;55.19;101205.31;20661145;28;20149;-73
2022/10/10 03:48:14;;;;;;;2.35;1.90;;;;;;;22.47;55.46;101215.03;20664327;28;20045;-72
2022/10/10 03:58:14;;;;;;;2.77;1.80;;;;;;;22.52;55.60;101210.28;20698041;28;20069;-73
2022/10/10 04:08:15;;;;;;;3.40;1.75;;;;;;;22.55;56.21;101206.56;20665998;28;20046;-72
2022/10/10 04:18:16;;;;;;;3.33;1.85;;;;;;;22.59;57.00;101208.03;20639419;28;20042;-74
2022/10/10 04:28:16;;;;;;;4.50;2.00;;;;;;;22.60;57.81;101207.09;20652174;28;20037;-74
2022/10/10 04:38:18;;;;;;;11.80;2.10;;;;;;;22.60;57.81;101203.59;20658710;28;20290;-75
2022/10/10 04:48:19;;;;;;;8.73;2.92;;;;;;;22.59;57.41;101204.56;20659677;28;20045;-73
2022/10/10 04:58:19;;;;;;;14.23;3.33;;;;;;;22.52;52.82;101212.03;20646419;28;20069;-80
2022/10/10 05:08:20;;;;;;;14.10;3.53;;;;;;;22.35;51.77;101210.56;20670926;28;20042;-79
2022/10/10 05:18:20;;;;;;;17.88;3.63;;;;;;;22.32;52.08;101221.34;20662561;28;20051;-85
2022/10/10 05:28:36;;;;;;;13.23;3.90;;;;;;;22.36;53.22;101209.59;20685021;28;20560;-77
2022/10/10 05:38:38;;;;;;;16.38;3.85;;;;;;;22.41;54.55;101223.38;20698963;28;20061;-78
2022/10/10 05:48:38;;;;;;;18.50;3.77;;;;;;;22.41;53.58;101227.78;20676315;28;21060;-83
2022/10/10 05:58:39;;;;;;;15.35;3.53;;;;;;;22.41;54.95;101230.44;20675065;28;20041;-82
2022/10/10 06:08:39;;;;;;;13.25;3.25;;;;;;;22.44;55.37;101244.25;20677244;28;20042;-86
2022/10/10 06:18:40;;;;;;;10.10;3.05;;;;;;;22.46;55.76;101247.66;20669724;28;20124;-80
2022/10/10 06:28:40;;;;;;;9.90;3.20;;;;;;;22.45;55.49;101224.84;20675663;28;20200;-83
2022/10/10 06:38:43;;;;;;;8.98;3.33;;;;;;;22.47;55.66;101227.38;20660272;28;20054;-83
2022/10/10 06:48:43;;;;;;;10.82;3.22;;;;;;;22.47;55.14;101236.16;20662034;28;20114;-78
2022/10/10 06:58:43;;;;;;;11.85;2.97;;;;;;;22.49;55.24;101238.66;20661618;28;20058;-79
2022/10/10 07:08:45;;;;;;;6.13;2.40;;;;;;;22.49;55.03;101228.13;20666857;28;20064;-80
2022/10/10 07:18:45;;;;;;;6.35;2.60;;;;;;;22.46;54.59;101225.69;20652649;28;20046;-80
2022/10/10 07:28:46;;;;;;;7.35;2.67;;;;;;;22.45;54.64;101219.56;20667479;28;20129;-78
2022/10/10 07:38:51;;;;;;;6.33;2.80;;;;;;;22.50;55.10;101227.16;20709085;28;20076;-78
2022/10/10 07:48:52;;;;;;;7.03;2.60;;;;;;;22.52;55.52;101219.97;20696278;28;20268;-79
2022/10/10 07:58:52;;;;;;;6.07;2.67;;;;;;;22.52;55.13;101226.09;20678276;28;20042;-79
2022/10/10 08:08:52;;;;;;;5.45;2.35;;;;;;;22.54;55.24;101220.72;20697378;28;20056;-71
2022/10/10 08:18:53;;;;;;;6.50;3.00;;;;;;;22.57;54.94;101219.66;20679918;28;20034;-72
2022/10/10 08:28:53;;;;;;;8.60;4.03;;;;;;;22.60;54.78;101208.88;20680305;28;20038;-71
2022/10/10 08:38:59;;;;;;;8.60;4.13;;;;;;;22.62;54.71;101199.03;20675237;28;20068;-71
2022/10/10 08:49:11;;;;;;;11.43;4.07;;;;;;;22.65;54.70;101196.19;20685590;28;20042;-72
2022/10/10 08:59:20;;;;;;;9.05;3.75;;;;;;;22.66;54.95;101180.25;20682789;28;20053;-72
2022/10/10 09:09:52;;;;;;;8.45;4.28;;;;;;;22.72;55.14;101178.97;20699077;28;20046;-73
2022/10/10 09:20:04;;;;;;;10.30;4.57;;;;;;;22.75;55.43;101173.47;20700196;28;20481;-71
2022/10/10 09:30:14;;;;;;;7.40;3.50;;;;;;;22.81;55.61;101159.84;20699800;28;20132;-79
2022/10/10 09:40:25;;;;;;;8.13;3.28;;;;;;;22.69;47.87;101161.56;20724708;28;20031;-76
2022/10/10 09:50:26;;;;;;;6.00;2.77;;;;;;;22.80;51.12;101152.00;20713766;28;20042;-79
2022/10/10 10:00:37;;;;;;;7.05;3.03;;;;;;;22.85;50.13;101148.09;20735046;28;20080;-77
2022/10/10 10:10:39;;;;;;;7.23;3.00;;;;;;;22.92;50.19;101145.00;20729431;28;20064;-79
2022/10/10 10:20:42;;;;;;;4.30;2.47;;;;;;;22.99;50.08;101127.75;20715118;28;20062;-78
2022/10/10 10:30:44;;;;;;;5.30;2.22;;;;;;;23.07;50.55;101129.81;20714043;28;20081;-78
2022/10/10 10:41:09;;;;;;;5.13;2.22;;;;;;;23.18;50.78;101116.72;20707620;28;20042;-78
2022/10/10 10:51:25;;;;;;;3.72;2.45;;;;;;;23.24;51.28;101095.13;20699531;28;20054;-79
2022/10/10 11:01:35;;;;;;;4.38;2.10;;;;;;;23.34;51.66;101087.34;20717387;28;20499;-77
2022/10/10 11:11:48;;;;;;;3.25;2.08;;;;;;;23.43;51.68;101076.03;20710485;28;20044;-76
2022/10/10 11:21:54;;;;;;;2.40;1.90;;;;;;;23.54;52.05;101069.94;20698767;28;20134;-76
2022/10/10 11:32:18;;;;;;;2.65;1.95;;;;;;;23.62;52.04;101061.41;20714426;28;20082;-79
2022/10/10 11:42:51;;;;;;;2.53;1.90;;;;;;;23.70;51.85;101052.91;20702940;28;20047;-77
2022/10/10 11:52:59;;;;;;;3.25;2.10;;;;;;;23.81;51.79;101040.53;20693560;28;20618;-77
2022/10/10 12:02:59;;;;;;;3.08;2.10;;;;;;;23.87;51.78;101027.78;20717120;28;20069;-77
2022/10/10 12:13:34;;;;;;;2.47;1.88;;;;;;;23.90;51.34;101011.66;20696812;28;20077;-77
2022/10/10 12:23:35;;;;;;;2.22;1.90;;;;;;;23.93;51.36;101003.53;20671905;28;20048;-78
2022/10/10 12:33:35;;;;;;;4.60;2.10;;;;;;;23.97;51.66;100995.22;20665131;28;20082;-76
2022/10/10 12:43:40;;;;;;;6.80;2.42;;;;;;;24.03;51.58;100990.41;20653802;28;20045;-75
2022/10/10 12:53:53;;;;;;;5.82;2.60;;;;;;;24.07;52.68;100995.34;20650465;28;20084;-78
2022/10/10 13:03:54;;;;;;;5.82;2.40;;;;;;;24.08;52.39;100985.56;20655404;28;20073;-76
2022/10/10 13:13:56;;;;;;;4.82;2.10;;;;;;;24.11;52.98;100978.22;20663633;28;20077;-75
2022/10/10 13:24:04;;;;;;;5.97;2.17;;;;;;;24.11;52.55;100966.81;20663839;28;20142;-78
2022/10/10 13:34:06;;;;;;;5.55;2.10;;;;;;;24.07;52.80;100953.00;20664294;28;20053;-79
2022/10/10 13:44:15;;;;;;;6.10;2.13;;;;;;;24.02;52.73;100957.81;20670085;28;20069;-81
2022/10/10 13:54:34;;;;;;;14.10;2.58;;;;;;;23.98;52.52;100943.97;20661854;28;20058;-76
2022/10/10 14:04:38;;;;;;;5.30;2.33;;;;;;;23.94;52.88;100936.44;20660153;28;20042;-74
2022/10/10 14:14:39;;;;;;;3.70;2.10;;;;;;;23.89;52.63;100939.41;20653771;28;20046;-75
2022/10/10 14:24:39;;;;;;;8.27;2.08;;;;;;;23.84;52.45;100923.09;20634920;28;20095;-73
2022/10/10 14:34:40;;;;;;;4.07;2.17;;;;;;;23.79;52.39;100912.00;20641769;28;20050;-75
2022/10/10 14:44:40;;;;;;;9.52;2.40;;;;;;;23.76;52.54;100907.00;20655922;28;20076;-74
2022/10/10 14:54:41;;;;;;;2.47;1.75;;;;;;;23.69;50.08;100911.91;20651862;28;20034;-75
2022/10/10 15:04:41;;;;;;;7.40;2.28;;;;;;;23.57;49.79;100900.53;20637417;28;20048;-73
2022/10/10 15:14:42;;;;;;;6.57;2.05;;;;;;;23.63;51.07;100905.34;20642748;28;20062;-74
2022/10/10 15:24:42;;;;;;;25.70;2.40;;;;;;;23.60;52.17;100899.44;20631779;28;20046;-75
2022/10/10 15:34:42;;;;;;;8.45;1.80;;;;;;;23.55;52.33;100898.97;20640703;28;20554;-74
2022/10/10 15:44:45;;;;;;;7.68;1.90;;;;;;;23.48;52.36;100902.09;20653807;28;20046;-74
2022/10/10 15:54:48;;;;;;;6.50;2.20;;;;;;;23.46;52.15;100895.25;20648858;28;20177;-75
2022/10/10 16:04:48;;;;;;;3.42;1.75;;;;;;;23.38;52.18;100895.84;20664668;28;20042;-74
2022/10/10 16:14:49;;;;;;;3.67;2.15;;;;;;;23.35;52.29;100888.16;20662869;28;20073;-74
2022/10/10 16:24:49;;;;;;;5.35;1.92;;;;;;;23.33;52.31;100885.66;20654537;28;20042;-74
2022/10/10 16:34:49;;;;;;;4.38;1.77;;;;;;;23.31;52.51;100890.22;20660703;28;20065;-81
2022/10/10 16:44:50;;;;;;;4.32;1.80;;;;;;;23.27;52.23;100894.06;20684190;28;20625;-80
2022/10/10 16:54:50;;;;;;;6.07;2.25;;;;;;;23.25;52.40;100893.31;20676162;28;20047;-84
2022/10/10 17:04:53;;;;;;;3.35;1.83;;;;;;;23.21;52.68;100893.72;20673707;28;20050;-84
2022/10/10 17:14:53;;;;;;;6.47;2.28;;;;;;;23.18;52.85;100913.28;20673403;28;20073;-85
2022/10/10 17:24:54;;;;;;;3.95;1.90;;;;;;;23.23;53.03;100907.63;20638199;28;20550;-77
2022/10/10 17:34:54;;;;;;;5.63;1.90;;;;;;;23.24;53.37;100896.97;20675540;28;20073;-77
2022/10/10 17:44:58;;;;;;;6.43;1.88;;;;;;;23.22;54.51;100890.94;20698994;28;20050;-80
2022/10/10 17:54:58;;;;;;;8.95;2.22;;;;;;;23.23;54.20;100889.97;20655572;28;20060;-75
2022/10/10 18:04:59;;;;;;;10.45;3.80;;;;;;;23.28;54.95;100892.28;20638277;28;20038;-77
2022/10/10 18:15:01;;;;;;;46.35;14.23;;;;;;;23.28;55.45;100893.09;20661008;28;20046;-78
2022/10/10 18:25:03;;;;;;;;;;;;;;;23.31;56.84;100887.59;20654162;28;20038;-78
2022/10/10 18:35:04;;;;;;;46.80;12.85;;;;;;;23.33;57.92;100890.94;20688339;28;19929;-78
2022/10/10 18:45:05;;;;;;;35.58;12.02;;;;;;;23.33;58.15;100890.09;20668524;28;20100;-77
2022/10/10 18:55:06;;;;;;;39.75;11.35;;;;;;;23.32;58.18;100880.50;20657365;28;20082;-78
2022/10/10 19:05:06;;;;;;;28.33;9.93;;;;;;;23.32;57.38;100891.88;20661087;28;20033;-77
2022/10/10 19:15:07;;;;;;;26.20;9.02;;;;;;;23.32;56.88;100897.16;20631470;28;20045;-80
2022/10/10 19:25:09;;;;;;;28.70;9.00;;;;;;;23.28;56.16;100897.56;20651880;28;20508;-79
2022/10/10 19:35:09;;;;;;;21.17;7.87;;;;;;;23.23;55.99;100894.41;20673329;28;20611;-79
2022/10/10 19:45:09;;;;;;;20.77;7.45;;;;;;;23.21;55.54;100893.72;20657014;28;20038;-78
2022/10/10 19:55:10;;;;;;;20.17;7.80;;;;;;;23.22;55.30;100895.38;20664453;28;20424;-75
2022/10/10 20:05:10;;;;;;;19.17;7.15;;;;;;;23.17;55.24;100888.66;20658068;28;20450;-75
2022/10/10 20:15:11;;;;;;;15.30;6.53;;;;;;;23.16;55.01;100888.75;20699599;28;20042;-76
2022/10/10 20:25:11;;;;;;;18.38;6.40;;;;;;;23.13;55.10;100889.84;20683920;28;20034;-76
2022/10/10 20:35:13;;;;;;;14.07;6.50;;;;;;;23.11;54.75;100883.81;20660679;28;20049;-75
2022/10/10 20:45:13;;;;;;;16.30;6.23;;;;;;;23.11;55.00;100889.09;20667395;28;20515;-75
2022/10/10 20:55:14;;;;;;;17.20;6.50;;;;;;;23.10;55.23;100886.59;20672821;28;20045;-76
2022/10/10 21:05:14;;;;;;;12.32;5.90;;;;;;;23.09;54.99;100890.19;20653977;28;20053;-77
2022/10/10 21:15:15;;;;;;;12.20;5.63;;;;;;;23.09;54.62;100895.47;20658461;28;20050;-75
2022/10/10 21:25:16;;;;;;;10.43;5.75;;;;;;;23.09;54.81;100888.38;20658576;28;20063;-75
2022/10/10 21:35:16;;;;;;;10.33;5.17;;;;;;;23.06;54.63;100883.34;20664549;28;20069;-74
2022/10/10 21:45:18;;;;;;;13.07;5.68;;;;;;;23.08;54.98;100891.13;20662919;28;20117;-74
2022/10/10 21:55:18;;;;;;;10.33;5.60;;;;;;;23.06;55.01;100888.63;20666152;28;20038;-74
2022/10/10 22:05:19;;;;;;;11.88;5.03;;;;;;;23.07;54.63;100886.81;20647008;28;20104;-74
2022/10/10 22:15:19;;;;;;;10.38;5.40;;;;;;;23.07;54.55;100887.66;20652623;28;20053;-74
2022/10/10 22:25:20;;;;;;;8.10;4.93;;;;;;;23.05;54.65;100889.56;20654095;28;20156;-74
2022/10/10 22:35:21;;;;;;;8.73;4.70;;;;;;;23.07;54.59;100878.88;20658776;28;20157;-74
2022/10/10 22:45:22;;;;;;;9.20;4.15;;;;;;;23.03;54.43;100867.72;20653275;28;20065;-74
2022/10/10 22:55:22;;;;;;;7.78;4.60;;;;;;;23.04;54.41;100872.03;20667989;28;20578;-75
2022/10/10 23:05:23;;;;;;;8.90;4.65;;;;;;;23.01;54.39;100873.13;20671007;28;20188;-78
2022/10/10 23:15:24;;;;;;;7.53;4.40;;;;;;;23.01;54.45;100877.59;20674415;28;20081;-74
2022/10/10 23:25:24;;;;;;;8.15;4.22;;;;;;;23.02;54.40;100873.97;20672763;28;20056;-73
2022/10/10 23:35:25;;;;;;;7.88;4.18;;;;;;;23.01;54.39;100870.50;20668307;28;20227;-77
2022/10/10 23:45:25;;;;;;;6.95;4.32;;;;;;;23.01;54.22;100867.03;20666229;28;20079;-75
2022/10/10 23:55:26;;;;;;;6.38;4.25;;;;;;;23.01;54.31;100874.94;20669383;28;20057;-76
